sensor_id;sensor_type;location;lat;lon;timestamp;pressure;altitude;pressure_sealevel;temperature;humidity
58698;BME280;44475;53.206;-6.106;2022-12-18T00:02:15;101366.66;;;22.94;41.80
58698;BME280;44475;53.206;-6.106;2022-12-18T00:04:41;101365.94;;;23.04;41.85
58698;BME280;44475;53.206;-6.106;2022-12-18T00:07:07;101357.75;;;23.04;41.87
58698;BME280;44475;53.206;-6.106;2022-12-18T00:09:33;101359.72;;;23.02;41.64
58698;BME280;44475;53.206;-6.106;2022-12-18T00:11:59;101363.06;;;23.05;41.68
58698;BME280;44475;53.206;-6.106;2022-12-18T00:14:35;101349.16;;;23.08;41.88
58698;BME280;44475;53.206;-6.106;2022-12-18T00:17:02;101340.34;;;23.05;41.93
58698;BME280;44475;53.206;-6.106;2022-12-18T00:19:28;101341.22;;;23.05;41.72
58698;BME280;44475;53.206;-6.106;2022-12-18T00:21:54;101342.22;;;23.04;42.06
58698;BME280;44475;53.206;-6.106;2022-12-18T00:24:20;101351.41;;;22.92;41.88
58698;BME280;44475;53.206;-6.106;2022-12-18T00:26:47;101348.41;;;23.06;41.95
58698;BME280;44475;53.206;-6.106;2022-12-18T00:29:13;101343.44;;;23.00;41.65
58698;BME280;44475;53.206;-6.106;2022-12-18T00:31:39;101349.56;;;23.04;41.89
58698;BME280;44475;53.206;-6.106;2022-12-18T00:34:06;101348.66;;;22.92;41.89
58698;BME280;44475;53.206;-6.106;2022-12-18T00:36:33;101351.88;;;22.97;42.10
58698;BME280;44475;53.206;-6.106;2022-12-18T00:39:00;101352.50;;;22.89;42.46
58698;BME280;44475;53.206;-6.106;2022-12-18T00:41:27;101340.19;;;22.95;41.98
58698;BME280;44475;53.206;-6.106;2022-12-18T00:44:13;101336.00;;;22.91;42.21
58698;BME280;44475;53.206;-6.106;2022-12-18T00:46:40;101328.81;;;23.01;42.13
58698;BME280;44475;53.206;-6.106;2022-12-18T00:49:06;101331.41;;;23.03;42.30
58698;BME280;44475;53.206;-6.106;2022-12-18T00:51:32;101322.47;;;23.01;42.12
58698;BME280;44475;53.206;-6.106;2022-12-18T00:53:59;101329.16;;;23.08;42.29
58698;BME280;44475;53.206;-6.106;2022-12-18T00:56:25;101324.81;;;23.05;41.84
58698;BME280;44475;53.206;-6.106;2022-12-18T00:58:52;101316.59;;;23.05;41.83
58698;BME280;44475;53.206;-6.106;2022-12-18T01:01:18;101313.88;;;23.05;42.18
58698;BME280;44475;53.206;-6.106;2022-12-18T01:03:45;101319.97;;;23.09;42.10
58698;BME280;44475;53.206;-6.106;2022-12-18T01:06:12;101319.50;;;23.04;42.07
58698;BME280;44475;53.206;-6.106;2022-12-18T01:08:39;101307.53;;;23.16;41.94
58698;BME280;44475;53.206;-6.106;2022-12-18T01:11:13;101315.75;;;23.05;42.14
58698;BME280;44475;53.206;-6.106;2022-12-18T01:13:41;101314.63;;;23.07;41.91
58698;BME280;44475;53.206;-6.106;2022-12-18T01:16:08;101302.69;;;22.97;42.42
58698;BME280;44475;53.206;-6.106;2022-12-18T01:18:35;101300.47;;;23.02;42.29
58698;BME280;44475;53.206;-6.106;2022-12-18T01:21:05;101315.63;;;23.06;42.46
58698;BME280;44475;53.206;-6.106;2022-12-18T01:23:31;101308.41;;;23.05;42.39
58698;BME280;44475;53.206;-6.106;2022-12-18T01:26:18;101305.94;;;23.14;41.92
58698;BME280;44475;53.206;-6.106;2022-12-18T01:28:50;101305.44;;;23.08;41.92
58698;BME280;44475;53.206;-6.106;2022-12-18T01:31:18;101297.13;;;23.10;42.09
58698;BME280;44475;53.206;-6.106;2022-12-18T01:33:47;101294.75;;;23.17;41.93
58698;BME280;44475;53.206;-6.106;2022-12-18T01:36:14;101291.78;;;23.20;42.06
58698;BME280;44475;53.206;-6.106;2022-12-18T01:38:41;101279.50;;;23.14;41.94
58698;BME280;44475;53.206;-6.106;2022-12-18T01:41:07;101272.16;;;23.15;41.94
58698;BME280;44475;53.206;-6.106;2022-12-18T01:43:44;101259.09;;;23.18;41.92
58698;BME280;44475;53.206;-6.106;2022-12-18T01:46:10;101246.16;;;23.21;42.02
58698;BME280;44475;53.206;-6.106;2022-12-18T01:48:36;101260.94;;;23.18;42.13
58698;BME280;44475;53.206;-6.106;2022-12-18T01:51:04;101244.94;;;23.25;41.79
58698;BME280;44475;53.206;-6.106;2022-12-18T01:53:30;101238.84;;;23.09;42.26
58698;BME280;44475;53.206;-6.106;2022-12-18T01:55:57;101220.72;;;23.08;42.26
58698;BME280;44475;53.206;-6.106;2022-12-18T01:59:07;101210.41;;;23.12;42.17
58698;BME280;44475;53.206;-6.106;2022-12-18T02:01:14;101208.28;;;23.16;42.17
58698;BME280;44475;53.206;-6.106;2022-12-18T02:03:43;101206.03;;;23.21;41.96
58698;BME280;44475;53.206;-6.106;2022-12-18T02:06:13;101183.19;;;23.22;42.06
58698;BME280;44475;53.206;-6.106;2022-12-18T02:14:08;101200.94;;;23.16;42.38
58698;BME280;44475;53.206;-6.106;2022-12-18T02:16:48;101208.28;;;23.16;42.11
58698;BME280;44475;53.206;-6.106;2022-12-18T02:19:20;101204.94;;;23.24;41.83
58698;BME280;44475;53.206;-6.106;2022-12-18T02:22:00;101199.19;;;23.27;41.73
58698;BME280;44475;53.206;-6.106;2022-12-18T02:24:41;101195.97;;;23.22;42.13
58698;BME280;44475;53.206;-6.106;2022-12-18T02:27:09;101175.81;;;23.34;41.79
58698;BME280;44475;53.206;-6.106;2022-12-18T02:29:39;101178.47;;;23.24;42.12
58698;BME280;44475;53.206;-6.106;2022-12-18T02:32:08;101179.78;;;23.30;41.87
58698;BME280;44475;53.206;-6.106;2022-12-18T02:34:37;101172.22;;;23.34;41.86
58698;BME280;44475;53.206;-6.106;2022-12-18T02:37:10;101157.59;;;23.23;42.06
58698;BME280;44475;53.206;-6.106;2022-12-18T02:39:41;101154.09;;;23.21;42.13
58698;BME280;44475;53.206;-6.106;2022-12-18T02:42:10;101160.09;;;23.15;42.10
58698;BME280;44475;53.206;-6.106;2022-12-18T02:44:44;101160.19;;;23.25;41.98
58698;BME280;44475;53.206;-6.106;2022-12-18T02:47:12;101170.00;;;23.16;42.44
58698;BME280;44475;53.206;-6.106;2022-12-18T02:52:24;101152.13;;;23.23;42.07
58698;BME280;44475;53.206;-6.106;2022-12-18T03:02:26;101141.75;;;23.27;41.92
58698;BME280;44475;53.206;-6.106;2022-12-18T03:04:58;101137.19;;;23.16;42.27
58698;BME280;44475;53.206;-6.106;2022-12-18T03:07:33;101146.63;;;23.35;41.91
58698;BME280;44475;53.206;-6.106;2022-12-18T03:10:01;101131.69;;;23.27;41.70
58698;BME280;44475;53.206;-6.106;2022-12-18T03:12:30;101111.22;;;23.22;41.86
58698;BME280;44475;53.206;-6.106;2022-12-18T03:15:04;101110.31;;;23.33;41.74
58698;BME280;44475;53.206;-6.106;2022-12-18T03:17:34;101109.13;;;23.25;41.79
58698;BME280;44475;53.206;-6.106;2022-12-18T03:20:03;101092.31;;;23.30;41.93
58698;BME280;44475;53.206;-6.106;2022-12-18T03:22:32;101073.41;;;23.27;42.17
58698;BME280;44475;53.206;-6.106;2022-12-18T03:25:01;101070.34;;;23.20;42.14
58698;BME280;44475;53.206;-6.106;2022-12-18T03:27:29;101071.97;;;23.23;42.01
58698;BME280;44475;53.206;-6.106;2022-12-18T03:30:01;101045.97;;;23.28;42.01
58698;BME280;44475;53.206;-6.106;2022-12-18T03:32:38;101048.31;;;23.33;41.82
58698;BME280;44475;53.206;-6.106;2022-12-18T03:35:06;101045.09;;;23.28;42.01
58698;BME280;44475;53.206;-6.106;2022-12-18T03:37:36;101043.09;;;23.30;41.65
58698;BME280;44475;53.206;-6.106;2022-12-18T03:40:03;101038.75;;;23.27;41.95
58698;BME280;44475;53.206;-6.106;2022-12-18T03:45:12;101041.41;;;23.17;42.02
58698;BME280;44475;53.206;-6.106;2022-12-18T03:47:41;101045.28;;;23.15;42.04
58698;BME280;44475;53.206;-6.106;2022-12-18T03:52:38;101041.63;;;23.26;42.16
58698;BME280;44475;53.206;-6.106;2022-12-18T03:55:07;101035.16;;;23.27;41.70
58698;BME280;44475;53.206;-6.106;2022-12-18T03:57:35;101028.91;;;23.15;42.14
58698;BME280;44475;53.206;-6.106;2022-12-18T04:00:06;101033.94;;;23.19;41.88
58698;BME280;44475;53.206;-6.106;2022-12-18T04:02:42;101031.22;;;23.19;42.12
58698;BME280;44475;53.206;-6.106;2022-12-18T04:05:10;101035.34;;;23.14;42.10
58698;BME280;44475;53.206;-6.106;2022-12-18T04:07:40;101008.03;;;23.14;42.09
58698;BME280;44475;53.206;-6.106;2022-12-18T04:10:09;101020.94;;;23.12;42.15
58698;BME280;44475;53.206;-6.106;2022-12-18T04:12:37;101021.41;;;23.17;42.18
58698;BME280;44475;53.206;-6.106;2022-12-18T04:15:03;101029.59;;;23.17;41.91
58698;BME280;44475;53.206;-6.106;2022-12-18T04:17:30;101027.75;;;23.17;42.18
58698;BME280;44475;53.206;-6.106;2022-12-18T04:19:57;101013.63;;;23.12;42.22
58698;BME280;44475;53.206;-6.106;2022-12-18T04:22:24;101003.00;;;23.19;42.26
58698;BME280;44475;53.206;-6.106;2022-12-18T04:24:56;100993.19;;;23.16;42.27
58698;BME280;44475;53.206;-6.106;2022-12-18T04:27:29;100991.47;;;23.15;42.13
58698;BME280;44475;53.206;-6.106;2022-12-18T04:29:57;100975.69;;;23.19;42.11
58698;BME280;44475;53.206;-6.106;2022-12-18T04:32:23;100971.63;;;23.13;42.22
58698;BME280;44475;53.206;-6.106;2022-12-18T04:34:49;100965.50;;;23.21;41.99
58698;BME280;44475;53.206;-6.106;2022-12-18T04:37:16;100957.66;;;23.16;42.16
58698;BME280;44475;53.206;-6.106;2022-12-18T04:39:43;100943.44;;;23.13;42.05
58698;BME280;44475;53.206;-6.106;2022-12-18T04:42:17;100944.41;;;23.12;42.06
58698;BME280;44475;53.206;-6.106;2022-12-18T04:44:43;100937.09;;;23.12;42.09
58698;BME280;44475;53.206;-6.106;2022-12-18T04:47:10;100927.22;;;23.21;41.85
58698;BME280;44475;53.206;-6.106;2022-12-18T04:49:36;100929.28;;;23.29;41.60
58698;BME280;44475;53.206;-6.106;2022-12-18T04:52:02;100928.53;;;23.27;41.73
58698;BME280;44475;53.206;-6.106;2022-12-18T04:54:28;100946.09;;;23.24;41.87
58698;BME280;44475;53.206;-6.106;2022-12-18T04:56:55;100931.75;;;23.32;41.80
58698;BME280;44475;53.206;-6.106;2022-12-18T04:59:21;100922.94;;;23.28;41.72
58698;BME280;44475;53.206;-6.106;2022-12-18T05:01:47;100930.69;;;23.23;41.88
58698;BME280;44475;53.206;-6.106;2022-12-18T05:04:13;100939.16;;;23.20;41.94
58698;BME280;44475;53.206;-6.106;2022-12-18T05:06:40;100932.56;;;23.23;42.16
58698;BME280;44475;53.206;-6.106;2022-12-18T05:09:06;100933.88;;;23.28;41.91
58698;BME280;44475;53.206;-6.106;2022-12-18T05:11:32;100938.53;;;23.16;42.20
58698;BME280;44475;53.206;-6.106;2022-12-18T05:13:58;100930.75;;;23.12;42.21
58698;BME280;44475;53.206;-6.106;2022-12-18T05:16:24;100931.00;;;23.08;42.36
58698;BME280;44475;53.206;-6.106;2022-12-18T05:18:50;100923.44;;;23.12;42.18
58698;BME280;44475;53.206;-6.106;2022-12-18T05:21:17;100915.47;;;23.09;42.18
58698;BME280;44475;53.206;-6.106;2022-12-18T05:23:43;100907.53;;;23.06;42.37
58698;BME280;44475;53.206;-6.106;2022-12-18T05:26:09;100905.41;;;23.09;42.04
58698;BME280;44475;53.206;-6.106;2022-12-18T05:28:39;100896.34;;;23.09;42.16
58698;BME280;44475;53.206;-6.106;2022-12-18T05:31:06;100890.69;;;23.22;41.71
58698;BME280;44475;53.206;-6.106;2022-12-18T05:33:32;100885.16;;;23.12;42.03
58698;BME280;44475;53.206;-6.106;2022-12-18T05:36:00;100863.63;;;23.19;42.14
58698;BME280;44475;53.206;-6.106;2022-12-18T05:38:27;100860.69;;;23.11;42.31
58698;BME280;44475;53.206;-6.106;2022-12-18T05:40:53;100858.69;;;23.13;42.06
58698;BME280;44475;53.206;-6.106;2022-12-18T05:43:20;100858.00;;;23.21;41.81
58698;BME280;44475;53.206;-6.106;2022-12-18T05:45:50;100859.00;;;23.19;41.95
58698;BME280;44475;53.206;-6.106;2022-12-18T05:48:17;100864.75;;;23.16;42.23
58698;BME280;44475;53.206;-6.106;2022-12-18T05:50:44;100854.22;;;23.12;42.22
58698;BME280;44475;53.206;-6.106;2022-12-18T05:53:11;100837.00;;;23.21;41.93
58698;BME280;44475;53.206;-6.106;2022-12-18T05:55:41;100826.47;;;23.16;42.12
58698;BME280;44475;53.206;-6.106;2022-12-18T05:58:08;100809.06;;;23.17;41.92
58698;BME280;44475;53.206;-6.106;2022-12-18T06:00:35;100838.63;;;23.24;42.06
58698;BME280;44475;53.206;-6.106;2022-12-18T06:03:06;100824.34;;;23.20;41.81
58698;BME280;44475;53.206;-6.106;2022-12-18T06:05:38;100810.75;;;23.08;42.08
58698;BME280;44475;53.206;-6.106;2022-12-18T06:08:05;100803.03;;;23.14;42.27
58698;BME280;44475;53.206;-6.106;2022-12-18T06:10:31;100814.97;;;23.13;41.90
58698;BME280;44475;53.206;-6.106;2022-12-18T06:12:57;100806.47;;;23.16;42.13
58698;BME280;44475;53.206;-6.106;2022-12-18T06:15:23;100788.91;;;23.08;42.23
58698;BME280;44475;53.206;-6.106;2022-12-18T06:17:50;100803.16;;;23.12;42.20
58698;BME280;44475;53.206;-6.106;2022-12-18T06:20:16;100789.63;;;23.11;42.04
58698;BME280;44475;53.206;-6.106;2022-12-18T06:22:42;100790.78;;;23.08;42.32
58698;BME280;44475;53.206;-6.106;2022-12-18T06:25:08;100785.78;;;23.13;41.93
58698;BME280;44475;53.206;-6.106;2022-12-18T06:27:35;100787.69;;;23.23;41.88
58698;BME280;44475;53.206;-6.106;2022-12-18T06:30:01;100790.06;;;23.16;41.78
58698;BME280;44475;53.206;-6.106;2022-12-18T06:32:27;100782.94;;;23.25;42.00
58698;BME280;44475;53.206;-6.106;2022-12-18T06:34:54;100788.50;;;23.13;41.84
58698;BME280;44475;53.206;-6.106;2022-12-18T06:37:21;100778.09;;;23.07;42.05
58698;BME280;44475;53.206;-6.106;2022-12-18T06:39:50;100782.03;;;23.14;42.11
58698;BME280;44475;53.206;-6.106;2022-12-18T06:42:16;100768.50;;;23.13;42.08
58698;BME280;44475;53.206;-6.106;2022-12-18T06:44:43;100756.28;;;23.17;42.04
58698;BME280;44475;53.206;-6.106;2022-12-18T06:47:09;100760.31;;;23.13;42.04
58698;BME280;44475;53.206;-6.106;2022-12-18T06:49:35;100758.97;;;23.07;41.99
58698;BME280;44475;53.206;-6.106;2022-12-18T06:52:01;100754.41;;;23.17;42.08
58698;BME280;44475;53.206;-6.106;2022-12-18T06:54:27;100739.00;;;23.16;41.94
58698;BME280;44475;53.206;-6.106;2022-12-18T06:56:54;100743.47;;;23.17;42.09
58698;BME280;44475;53.206;-6.106;2022-12-18T06:59:21;100747.81;;;23.20;41.85
58698;BME280;44475;53.206;-6.106;2022-12-18T07:01:47;100743.34;;;23.19;41.74
58698;BME280;44475;53.206;-6.106;2022-12-18T07:04:13;100743.03;;;23.12;41.98
58698;BME280;44475;53.206;-6.106;2022-12-18T07:06:43;100734.84;;;23.12;42.10
58698;BME280;44475;53.206;-6.106;2022-12-18T07:09:09;100721.06;;;23.14;41.93
58698;BME280;44475;53.206;-6.106;2022-12-18T07:11:35;100703.69;;;23.25;41.95
58698;BME280;44475;53.206;-6.106;2022-12-18T07:14:01;100702.66;;;23.26;41.77
58698;BME280;44475;53.206;-6.106;2022-12-18T07:16:27;100703.34;;;23.18;41.89
58698;BME280;44475;53.206;-6.106;2022-12-18T07:18:56;100698.75;;;23.18;41.90
58698;BME280;44475;53.206;-6.106;2022-12-18T07:21:23;100704.94;;;23.21;42.08
58698;BME280;44475;53.206;-6.106;2022-12-18T07:23:50;100702.63;;;23.16;41.87
58698;BME280;44475;53.206;-6.106;2022-12-18T07:26:17;100690.28;;;23.22;41.76
58698;BME280;44475;53.206;-6.106;2022-12-18T07:28:45;100678.63;;;23.19;42.02
58698;BME280;44475;53.206;-6.106;2022-12-18T07:31:12;100689.56;;;23.29;41.58
58698;BME280;44475;53.206;-6.106;2022-12-18T07:33:39;100677.91;;;23.27;41.89
58698;BME280;44475;53.206;-6.106;2022-12-18T07:36:05;100672.16;;;23.21;42.04
58698;BME280;44475;53.206;-6.106;2022-12-18T07:38:32;100674.84;;;23.11;41.79
58698;BME280;44475;53.206;-6.106;2022-12-18T07:41:09;100661.22;;;23.21;41.79
58698;BME280;44475;53.206;-6.106;2022-12-18T07:43:36;100673.00;;;23.21;42.02
58698;BME280;44475;53.206;-6.106;2022-12-18T07:46:02;100661.34;;;23.19;41.71
58698;BME280;44475;53.206;-6.106;2022-12-18T07:48:28;100669.72;;;23.27;41.72
58698;BME280;44475;53.206;-6.106;2022-12-18T07:50:58;100637.34;;;23.23;41.67
58698;BME280;44475;53.206;-6.106;2022-12-18T07:53:25;100635.31;;;23.15;41.89
58698;BME280;44475;53.206;-6.106;2022-12-18T07:55:56;100612.88;;;23.11;41.94
58698;BME280;44475;53.206;-6.106;2022-12-18T07:58:23;100593.28;;;23.16;41.83
58698;BME280;44475;53.206;-6.106;2022-12-18T08:00:49;100592.59;;;23.14;41.80
58698;BME280;44475;53.206;-6.106;2022-12-18T08:03:16;100594.75;;;23.20;41.82
58698;BME280;44475;53.206;-6.106;2022-12-18T08:05:42;100577.94;;;23.15;41.75
58698;BME280;44475;53.206;-6.106;2022-12-18T08:08:08;100570.88;;;23.12;41.76
58698;BME280;44475;53.206;-6.106;2022-12-18T08:10:34;100560.94;;;23.21;41.67
58698;BME280;44475;53.206;-6.106;2022-12-18T08:13:00;100549.16;;;23.21;41.75
58698;BME280;44475;53.206;-6.106;2022-12-18T08:15:26;100530.75;;;23.13;41.54
58698;BME280;44475;53.206;-6.106;2022-12-18T08:17:55;100528.75;;;23.25;41.81
58698;BME280;44475;53.206;-6.106;2022-12-18T08:20:21;100523.97;;;23.27;41.55
58698;BME280;44475;53.206;-6.106;2022-12-18T08:22:48;100516.50;;;23.19;41.43
58698;BME280;44475;53.206;-6.106;2022-12-18T08:25:14;100526.56;;;23.18;41.76
58698;BME280;44475;53.206;-6.106;2022-12-18T08:27:40;100501.97;;;23.08;41.73
58698;BME280;44475;53.206;-6.106;2022-12-18T08:30:06;100515.22;;;23.23;41.60
58698;BME280;44475;53.206;-6.106;2022-12-18T08:32:33;100491.91;;;23.19;41.57
58698;BME280;44475;53.206;-6.106;2022-12-18T08:34:59;100487.28;;;23.19;41.57
58698;BME280;44475;53.206;-6.106;2022-12-18T08:37:25;100469.47;;;23.25;41.40
58698;BME280;44475;53.206;-6.106;2022-12-18T08:39:51;100456.34;;;23.29;41.53
58698;BME280;44475;53.206;-6.106;2022-12-18T08:42:17;100475.78;;;23.16;41.79
58698;BME280;44475;53.206;-6.106;2022-12-18T08:45:02;100474.38;;;23.12;41.94
58698;BME280;44475;53.206;-6.106;2022-12-18T08:47:29;100472.50;;;23.12;41.63
58698;BME280;44475;53.206;-6.106;2022-12-18T08:49:55;100478.25;;;23.09;41.88
58698;BME280;44475;53.206;-6.106;2022-12-18T08:52:21;100487.16;;;23.11;41.96
58698;BME280;44475;53.206;-6.106;2022-12-18T08:54:47;100488.03;;;23.12;41.73
58698;BME280;44475;53.206;-6.106;2022-12-18T08:57:13;100486.03;;;23.14;41.78
58698;BME280;44475;53.206;-6.106;2022-12-18T08:59:40;100498.97;;;23.12;42.06
58698;BME280;44475;53.206;-6.106;2022-12-18T09:02:06;100502.97;;;23.07;42.01
58698;BME280;44475;53.206;-6.106;2022-12-18T09:04:33;100502.56;;;23.12;42.15
58698;BME280;44475;53.206;-6.106;2022-12-18T09:07:00;100499.81;;;23.12;41.85
58698;BME280;44475;53.206;-6.106;2022-12-18T09:09:26;100506.56;;;23.08;41.92
58698;BME280;44475;53.206;-6.106;2022-12-18T09:11:52;100500.69;;;23.13;41.78
58698;BME280;44475;53.206;-6.106;2022-12-18T09:14:18;100502.69;;;23.11;42.07
58698;BME280;44475;53.206;-6.106;2022-12-18T09:16:45;100503.69;;;23.09;42.00
58698;BME280;44475;53.206;-6.106;2022-12-18T09:19:11;100511.91;;;23.09;41.79
58698;BME280;44475;53.206;-6.106;2022-12-18T09:21:37;100496.94;;;23.14;42.11
58698;BME280;44475;53.206;-6.106;2022-12-18T09:24:04;100494.50;;;23.11;41.66
58698;BME280;44475;53.206;-6.106;2022-12-18T09:26:31;100486.88;;;23.14;41.91
58698;BME280;44475;53.206;-6.106;2022-12-18T09:28:57;100483.69;;;23.19;41.76
58698;BME280;44475;53.206;-6.106;2022-12-18T09:31:23;100482.28;;;23.15;41.73
58698;BME280;44475;53.206;-6.106;2022-12-18T09:33:50;100480.81;;;23.21;41.76
58698;BME280;44475;53.206;-6.106;2022-12-18T09:36:17;100472.34;;;23.14;41.74
58698;BME280;44475;53.206;-6.106;2022-12-18T09:38:44;100468.16;;;23.19;41.76
58698;BME280;44475;53.206;-6.106;2022-12-18T09:43:59;100465.88;;;23.15;41.91
58698;BME280;44475;53.206;-6.106;2022-12-18T09:46:27;100462.25;;;23.34;41.69
58698;BME280;44475;53.206;-6.106;2022-12-18T09:48:56;100460.56;;;23.23;41.60
58698;BME280;44475;53.206;-6.106;2022-12-18T09:51:28;100446.75;;;23.15;41.87
58698;BME280;44475;53.206;-6.106;2022-12-18T09:54:00;100450.34;;;23.25;42.02
58698;BME280;44475;53.206;-6.106;2022-12-18T09:56:29;100432.03;;;23.26;42.01
58698;BME280;44475;53.206;-6.106;2022-12-18T09:58:58;100416.38;;;23.18;41.94
58698;BME280;44475;53.206;-6.106;2022-12-18T10:01:26;100416.97;;;23.22;42.00
58698;BME280;44475;53.206;-6.106;2022-12-18T10:03:52;100406.16;;;23.20;41.61
58698;BME280;44475;53.206;-6.106;2022-12-18T10:06:33;100400.28;;;23.25;41.99
58698;BME280;44475;53.206;-6.106;2022-12-18T10:14:18;100368.63;;;23.22;41.72
58698;BME280;44475;53.206;-6.106;2022-12-18T10:21:58;100350.25;;;23.14;41.78
58698;BME280;44475;53.206;-6.106;2022-12-18T10:30:33;100336.69;;;23.23;41.57
58698;BME280;44475;53.206;-6.106;2022-12-18T10:33:02;100318.09;;;23.26;41.76
58698;BME280;44475;53.206;-6.106;2022-12-18T10:35:29;100324.91;;;23.22;41.73
58698;BME280;44475;53.206;-6.106;2022-12-18T10:37:59;100308.22;;;23.25;41.56
58698;BME280;44475;53.206;-6.106;2022-12-18T10:40:26;100288.50;;;23.22;41.75
58698;BME280;44475;53.206;-6.106;2022-12-18T10:43:05;100276.72;;;23.21;41.89
58698;BME280;44475;53.206;-6.106;2022-12-18T10:45:32;100265.63;;;23.23;41.75
58698;BME280;44475;53.206;-6.106;2022-12-18T10:47:58;100257.28;;;23.24;41.75
58698;BME280;44475;53.206;-6.106;2022-12-18T10:52:55;100234.03;;;23.10;42.01
58698;BME280;44475;53.206;-6.106;2022-12-18T10:55:26;100237.28;;;23.24;41.94
58698;BME280;44475;53.206;-6.106;2022-12-18T10:57:53;100229.53;;;23.19;42.11
58698;BME280;44475;53.206;-6.106;2022-12-18T11:00:21;100213.13;;;23.19;42.19
58698;BME280;44475;53.206;-6.106;2022-12-18T11:02:48;100207.75;;;23.27;41.83
58698;BME280;44475;53.206;-6.106;2022-12-18T11:05:30;100186.03;;;23.26;42.10
58698;BME280;44475;53.206;-6.106;2022-12-18T11:07:58;100174.28;;;23.25;42.04
58698;BME280;44475;53.206;-6.106;2022-12-18T11:13:08;100170.56;;;23.16;42.08
58698;BME280;44475;53.206;-6.106;2022-12-18T11:15:34;100168.16;;;23.13;42.28
58698;BME280;44475;53.206;-6.106;2022-12-18T11:18:01;100153.22;;;23.07;42.51
58698;BME280;44475;53.206;-6.106;2022-12-18T11:20:30;100138.34;;;23.20;42.14
58698;BME280;44475;53.206;-6.106;2022-12-18T11:22:59;100127.72;;;23.17;42.31
58698;BME280;44475;53.206;-6.106;2022-12-18T11:25:26;100144.81;;;23.19;42.47
58698;BME280;44475;53.206;-6.106;2022-12-18T11:27:54;100131.94;;;23.11;42.82
58698;BME280;44475;53.206;-6.106;2022-12-18T11:30:28;100115.22;;;23.14;42.71
58698;BME280;44475;53.206;-6.106;2022-12-18T11:40:46;100092.66;;;23.12;42.58
58698;BME280;44475;53.206;-6.106;2022-12-18T11:43:29;100107.78;;;23.06;42.71
58698;BME280;44475;53.206;-6.106;2022-12-18T11:48:49;100087.56;;;23.17;42.69
58698;BME280;44475;53.206;-6.106;2022-12-18T11:51:33;100082.75;;;23.29;42.63
58698;BME280;44475;53.206;-6.106;2022-12-18T11:54:01;100083.84;;;23.37;42.25
58698;BME280;44475;53.206;-6.106;2022-12-18T11:59:07;100062.22;;;23.25;42.61
58698;BME280;44475;53.206;-6.106;2022-12-18T12:01:55;100062.38;;;23.24;42.44
58698;BME280;44475;53.206;-6.106;2022-12-18T12:04:33;100063.63;;;23.29;42.64
58698;BME280;44475;53.206;-6.106;2022-12-18T12:10:18;100022.78;;;23.28;42.33
58698;BME280;44475;53.206;-6.106;2022-12-18T12:15:22;100017.94;;;23.22;42.70
58698;BME280;44475;53.206;-6.106;2022-12-18T12:30:35;99991.28;;;23.42;42.37
58698;BME280;44475;53.206;-6.106;2022-12-18T12:33:14;99977.63;;;23.42;42.08
58698;BME280;44475;53.206;-6.106;2022-12-18T12:38:37;99962.41;;;23.39;42.26
58698;BME280;44475;53.206;-6.106;2022-12-18T12:41:08;99968.94;;;23.47;42.38
58698;BME280;44475;53.206;-6.106;2022-12-18T12:43:56;99943.56;;;23.36;42.36
58698;BME280;44475;53.206;-6.106;2022-12-18T12:46:23;99937.94;;;23.38;42.53
58698;BME280;44475;53.206;-6.106;2022-12-18T12:48:58;99928.13;;;23.45;42.43
58698;BME280;44475;53.206;-6.106;2022-12-18T12:51:26;99928.78;;;23.47;42.15
58698;BME280;44475;53.206;-6.106;2022-12-18T12:53:54;99916.38;;;23.53;42.38
58698;BME280;44475;53.206;-6.106;2022-12-18T12:56:22;99921.22;;;23.41;42.40
58698;BME280;44475;53.206;-6.106;2022-12-18T13:09:02;99894.72;;;23.33;42.44
58698;BME280;44475;53.206;-6.106;2022-12-18T13:11:37;99894.31;;;23.28;42.40
58698;BME280;44475;53.206;-6.106;2022-12-18T13:14:24;99880.53;;;23.38;42.38
58698;BME280;44475;53.206;-6.106;2022-12-18T13:16:52;99883.78;;;23.33;42.33
58698;BME280;44475;53.206;-6.106;2022-12-18T13:19:38;99872.69;;;23.35;42.16
58698;BME280;44475;53.206;-6.106;2022-12-18T13:22:20;99870.31;;;23.40;42.38
58698;BME280;44475;53.206;-6.106;2022-12-18T13:24:46;99864.72;;;23.50;42.22
58698;BME280;44475;53.206;-6.106;2022-12-18T13:29:58;99849.72;;;23.27;42.45
58698;BME280;44475;53.206;-6.106;2022-12-18T13:32:25;99844.81;;;23.31;42.31
58698;BME280;44475;53.206;-6.106;2022-12-18T13:35:53;99841.38;;;23.29;42.51
58698;BME280;44475;53.206;-6.106;2022-12-18T13:37:54;99833.41;;;23.36;42.11
58698;BME280;44475;53.206;-6.106;2022-12-18T13:45:50;99823.44;;;23.62;41.66
58698;BME280;44475;53.206;-6.106;2022-12-18T13:48:24;99813.44;;;23.44;41.88
58698;BME280;44475;53.206;-6.106;2022-12-18T13:50:53;99815.97;;;23.37;42.19
58698;BME280;44475;53.206;-6.106;2022-12-18T13:53:34;99807.75;;;23.37;42.18
58698;BME280;44475;53.206;-6.106;2022-12-18T13:56:02;99807.59;;;23.38;42.25
58698;BME280;44475;53.206;-6.106;2022-12-18T13:58:28;99797.53;;;23.39;42.01
58698;BME280;44475;53.206;-6.106;2022-12-18T14:00:54;99787.44;;;23.39;42.15
58698;BME280;44475;53.206;-6.106;2022-12-18T14:03:22;99786.72;;;23.29;42.10
58698;BME280;44475;53.206;-6.106;2022-12-18T14:05:53;99789.75;;;23.26;42.46
58698;BME280;44475;53.206;-6.106;2022-12-18T14:08:20;99782.59;;;23.25;42.04
58698;BME280;44475;53.206;-6.106;2022-12-18T14:10:47;99777.81;;;23.27;42.20
58698;BME280;44475;53.206;-6.106;2022-12-18T14:13:23;99768.09;;;23.24;42.57
58698;BME280;44475;53.206;-6.106;2022-12-18T14:15:50;99768.75;;;23.26;42.18
58698;BME280;44475;53.206;-6.106;2022-12-18T14:20:46;99765.34;;;23.24;42.16
58698;BME280;44475;53.206;-6.106;2022-12-18T14:25:58;99755.78;;;23.28;42.20
58698;BME280;44475;53.206;-6.106;2022-12-18T14:28:25;99760.22;;;23.21;42.38
58698;BME280;44475;53.206;-6.106;2022-12-18T14:30:52;99738.19;;;23.23;42.48
58698;BME280;44475;53.206;-6.106;2022-12-18T14:33:20;99743.09;;;23.19;42.47